Flagstaff, AZ (86004)

10:51 AM MST on December 10, 2016 (GMT -0700)
| | Change Station

Elev -9999 ft 0.00 °N, 0.00 °E | Updated 3 minutes ago

Clear
Clear
47 °F
Feels Like 45 °F
N
4
Wind Variable Wind from West
Gusts mph

Today
High -- | Low -- °F
--% Chance of Precip.
Yesterday
High -- | Low -- °F
Precip. -- in
Pressure 30.20 in
Visibility 10.0 miles
Clouds Clear
Windchill 45 °F
Dew Point 26 °F
Humidity 44%
Rainfall --
Snow Depth Not available.
7:24 AM 5:14 PM
Waxing Gibbous, 85% visible
METAR KFLG 101657Z 24007KT 10SM CLR 05/01 A3024 RMK AO2 SLP226 T00500006
Pressure 30.20 in
Visibility 10.0 miles
Clouds Clear
Windchill 45 °F
Dew Point 26 °F
Humidity 44%
Rainfall --
Snow Depth Not available.
7:24 AM 5:14 PM
Waxing Gibbous, 85% visible
METAR KFLG 101657Z 24007KT 10SM CLR 05/01 A3024 RMK AO2 SLP226 T00500006

10-Day Weather Forecast

Almanac

Astronomy

Dec. 10, 2016 Rise Set
Actual Time
Civil Twilight
Nautical Twilight
Astronomical Twilight
Moon
Length of Visible Light
Length of Day
Tomorrow will be .
, % of the Moon is Illuminated

Today's Extremes

State Highs State Lows

Community

WunderPhotos

Upload Photos

1,956,591 photos uploaded!

WunderBlog® & News

Nearby

Air Quality

  Air Quality AQ Index Pollutant
Not available.

Snow Depth

Station Depth Elevation

Earthquake Activity

City Distance Mag. Time & Date
Minimum magnitude displayed is 2.5.

Coastal Water Temperatures

Place Temperature

Stations

Nearby Weather Stations

Station Location Temp. Windchill Dew Point Humidity Wind Precip. Elev Updated Type
                   

Watches & Warnings

There are currently no watches in effect.